createdAt,value
2022-12-09T00:00:06.359Z,23.83
2022-12-09T00:04:09.469Z,23.17
2022-12-09T00:08:12.392Z,23.10
2022-12-09T00:12:16.587Z,23.17
2022-12-09T00:16:20.082Z,26.05
2022-12-09T00:20:22.999Z,24.02
2022-12-09T00:24:25.859Z,23.42
2022-12-09T00:28:30.097Z,22.35
2022-12-09T00:32:33.333Z,22.65
2022-12-09T00:36:36.272Z,22.60
2022-12-09T00:40:38.968Z,19.92
2022-12-09T00:44:43.117Z,21.92
2022-12-09T00:48:47.746Z,22.23
2022-12-09T00:52:50.867Z,24.98
2022-12-09T00:56:53.659Z,22.35
2022-12-09T01:00:57.999Z,22.08
2022-12-09T01:05:00.816Z,22.50
2022-12-09T01:09:04.591Z,21.02
2022-12-09T01:13:08.737Z,21.67
2022-12-09T01:17:12.913Z,21.05
2022-12-09T01:21:16.250Z,23.02
2022-12-09T01:25:19.493Z,22.02
2022-12-09T01:29:22.351Z,23.52
2022-12-09T01:33:26.812Z,22.00
2022-12-09T01:37:32.535Z,21.13
2022-12-09T01:41:36.685Z,21.30
2022-12-09T01:45:44.225Z,19.50
2022-12-09T01:49:48.482Z,18.55
2022-12-09T01:53:52.692Z,19.35
2022-12-09T01:57:56.268Z,20.67
2022-12-09T02:02:01.893Z,18.77
2022-12-09T02:06:06.802Z,17.77
2022-12-09T02:10:13.550Z,17.33
2022-12-09T02:14:32.630Z,18.27
2022-12-09T02:18:43.619Z,18.30
2022-12-09T02:22:54.801Z,15.27
2022-12-09T02:27:11.431Z,17.05
2022-12-09T02:31:28.884Z,18.02
2022-12-09T02:35:38.641Z,17.90
2022-12-09T02:39:47.846Z,17.25
2022-12-09T02:43:55.911Z,17.30
2022-12-09T02:48:06.935Z,16.10
2022-12-09T02:52:12.662Z,16.20
2022-12-09T02:56:16.963Z,16.17
2022-12-09T03:00:20.593Z,16.30
2022-12-09T03:04:26.141Z,16.58
2022-12-09T03:08:38.107Z,17.33
2022-12-09T03:12:44.451Z,18.60
2022-12-09T03:16:52.331Z,17.98
2022-12-09T03:20:55.627Z,16.52
2022-12-09T03:25:05.803Z,18.30
2022-12-09T03:29:13.672Z,17.38
2022-12-09T03:33:20.418Z,18.65
2022-12-09T03:37:23.814Z,20.50
2022-12-09T03:41:30.647Z,20.38
2022-12-09T03:45:33.972Z,20.70
2022-12-09T03:49:38.939Z,20.50
2022-12-09T03:53:46.749Z,21.45
2022-12-09T03:57:55.947Z,20.05
2022-12-09T04:01:59.119Z,21.27
2022-12-09T04:06:02.262Z,19.80
2022-12-09T04:10:06.090Z,20.25
2022-12-09T04:14:15.538Z,23.77
2022-12-09T04:18:18.889Z,22.58
2022-12-09T04:22:21.947Z,23.33
2022-12-09T04:26:25.097Z,19.45
2022-12-09T04:30:29.346Z,19.85
2022-12-09T04:34:34.002Z,21.48
2022-12-09T04:38:37.056Z,18.88
2022-12-09T04:42:39.859Z,17.90
2022-12-09T04:46:44.311Z,20.70
2022-12-09T04:50:47.332Z,21.33
2022-12-09T04:54:51.052Z,20.52
2022-12-09T04:58:54.249Z,19.23
2022-12-09T05:02:58.414Z,17.50
2022-12-09T05:07:01.774Z,15.95
2022-12-09T05:11:05.045Z,17.70
2022-12-09T05:15:09.172Z,16.98
2022-12-09T05:19:13.666Z,16.98
2022-12-09T05:23:16.608Z,17.13
2022-12-09T05:27:19.665Z,17.77
2022-12-09T05:31:24.554Z,18.30
2022-12-09T05:35:28.911Z,16.52
2022-12-09T05:39:31.727Z,16.58
2022-12-09T05:43:35.266Z,17.33
2022-12-09T05:47:38.329Z,18.00
2022-12-09T05:51:43.223Z,16.15
2022-12-09T05:55:46.397Z,16.85
2022-12-09T05:59:49.305Z,16.13
2022-12-09T06:03:53.490Z,16.02
2022-12-09T06:08:02.368Z,17.48
2022-12-09T06:12:08.425Z,15.38
2022-12-09T06:16:12.082Z,15.05
2022-12-09T06:20:15.656Z,13.68
2022-12-09T06:24:20.061Z,14.25
2022-12-09T06:28:22.861Z,15.18
2022-12-09T06:32:26.054Z,15.25
2022-12-09T06:36:31.289Z,17.23
2022-12-09T06:40:35.750Z,19.17
2022-12-09T06:44:40.243Z,18.63
2022-12-09T06:48:43.881Z,17.77
2022-12-09T06:52:46.750Z,15.38
2022-12-09T06:56:50.941Z,14.85
2022-12-09T07:00:53.929Z,15.80
2022-12-09T07:04:58.228Z,14.52
2022-12-09T07:09:03.314Z,15.23
2022-12-09T07:13:07.905Z,15.63
2022-12-09T07:17:16.705Z,14.60
2022-12-09T07:21:20.925Z,15.80
2022-12-09T07:25:24.478Z,16.45
2022-12-09T07:29:28.906Z,15.32
2022-12-09T07:33:32.109Z,16.27
2022-12-09T07:37:35.535Z,14.70
2022-12-09T07:41:38.703Z,15.13
2022-12-09T07:45:43.373Z,13.80
2022-12-09T07:49:46.743Z,14.23
2022-12-09T07:53:49.699Z,13.95
2022-12-09T07:57:52.775Z,13.55
2022-12-09T08:02:01.084Z,12.52
2022-12-09T08:06:08.075Z,13.10
2022-12-09T08:10:12.230Z,12.25
2022-12-09T08:14:15.676Z,12.05
2022-12-09T08:18:20.508Z,12.20
2022-12-09T08:22:26.681Z,11.23
2022-12-09T08:26:32.417Z,11.70
2022-12-09T08:30:37.084Z,11.13
2022-12-09T08:34:42.025Z,10.93
2022-12-09T08:38:45.602Z,10.77
2022-12-09T08:42:48.440Z,11.15
2022-12-09T08:46:53.837Z,11.73
2022-12-09T08:50:58.607Z,11.68
2022-12-09T08:55:01.445Z,10.82
2022-12-09T08:59:04.904Z,11.20
2022-12-09T09:03:07.936Z,12.10
2022-12-09T09:07:13.114Z,11.95
2022-12-09T09:11:18.780Z,12.30
2022-12-09T09:15:22.749Z,13.00
2022-12-09T09:19:26.919Z,12.02
2022-12-09T09:23:31.433Z,12.18
2022-12-09T09:27:35.384Z,10.00
2022-12-09T09:31:38.559Z,9.70
2022-12-09T09:35:42.392Z,10.10
2022-12-09T09:39:46.614Z,10.00
2022-12-09T09:43:50.014Z,10.32
2022-12-09T09:47:56.664Z,10.32
2022-12-09T09:52:04.553Z,11.18
2022-12-09T09:56:19.986Z,10.88
2022-12-09T10:00:26.668Z,10.55
2022-12-09T10:04:35.583Z,11.48
2022-12-09T10:08:45.755Z,11.38
2022-12-09T10:13:07.262Z,12.85
2022-12-09T10:17:24.154Z,12.93
2022-12-09T10:21:30.248Z,12.15
2022-12-09T10:25:35.790Z,13.57
2022-12-09T10:29:55.226Z,12.90
2022-12-09T10:33:58.284Z,14.60
2022-12-09T10:38:09.040Z,13.05
2022-12-09T10:42:34.826Z,13.90
2022-12-09T10:46:39.566Z,14.27
2022-12-09T10:50:42.954Z,14.05
2022-12-09T10:54:49.619Z,14.30
2022-12-09T10:59:10.584Z,14.05
2022-12-09T11:03:32.508Z,13.93
2022-12-09T11:07:37.211Z,14.68
2022-12-09T11:11:43.671Z,13.95
2022-12-09T11:15:51.381Z,13.82
2022-12-09T11:20:09.611Z,15.05
2022-12-09T11:24:22.295Z,14.13
2022-12-09T11:28:27.806Z,14.13
2022-12-09T11:32:30.927Z,14.13
2022-12-09T11:36:42.179Z,14.80
2022-12-09T11:41:01.935Z,14.63
2022-12-09T11:45:17.096Z,16.15
2022-12-09T11:49:19.904Z,14.57
2022-12-09T11:53:28.532Z,17.75
2022-12-09T11:57:36.083Z,18.80
2022-12-09T12:01:57.264Z,18.13
2022-12-09T12:06:03.677Z,18.05
2022-12-09T12:10:17.055Z,18.15
2022-12-09T12:14:23.948Z,19.30
2022-12-09T12:18:30.414Z,17.33
2022-12-09T12:23:05.646Z,18.63
2022-12-09T12:27:24.813Z,16.70
2022-12-09T12:31:41.462Z,18.00
2022-12-09T12:35:54.464Z,21.00
2022-12-09T12:40:05.832Z,20.27
2022-12-09T12:44:43.667Z,21.70
2022-12-09T12:49:00.084Z,21.83
2022-12-09T12:53:11.221Z,21.25
2022-12-09T12:57:18.985Z,23.67
2022-12-09T13:01:30.899Z,20.85
2022-12-09T13:05:38.482Z,22.60
2022-12-09T13:09:45.890Z,20.75
2022-12-09T13:13:54.510Z,20.92
2022-12-09T13:18:02.578Z,21.60
2022-12-09T13:22:05.786Z,22.48
2022-12-09T13:26:20.957Z,22.80
2022-12-09T13:30:28.619Z,22.10
2022-12-09T13:34:38.524Z,22.70
2022-12-09T13:38:43.308Z,20.90
2022-12-09T13:42:56.299Z,20.63
2022-12-09T13:47:26.529Z,19.52
2022-12-09T13:51:45.244Z,19.63
2022-12-09T13:55:54.118Z,20.67
2022-12-09T14:00:00.222Z,19.95
2022-12-09T14:04:12.458Z,20.20
2022-12-09T14:08:23.049Z,19.98
2022-12-09T14:13:05.133Z,20.83
2022-12-09T14:17:20.321Z,21.35
2022-12-09T14:21:26.875Z,20.63
2022-12-09T14:26:09.133Z,22.52
2022-12-09T14:30:45.381Z,21.05
2022-12-09T14:34:50.134Z,20.95
2022-12-09T14:39:23.220Z,22.70
2022-12-09T14:43:37.608Z,21.35
2022-12-09T14:47:43.126Z,22.13
2022-12-09T14:51:49.018Z,23.23
2022-12-09T14:55:52.489Z,20.63
2022-12-09T14:59:59.441Z,21.95
2022-12-09T15:09:33.024Z,20.35
2022-12-09T15:13:59.612Z,18.75
2022-12-09T15:18:07.264Z,20.15
2022-12-09T15:22:25.631Z,18.80
2022-12-09T15:26:29.737Z,19.27
2022-12-09T15:30:35.180Z,19.05
2022-12-09T15:34:39.430Z,20.20
2022-12-09T15:38:46.506Z,19.45
2022-12-09T15:42:53.391Z,20.25
2022-12-09T15:46:58.696Z,19.67
2022-12-09T15:51:06.423Z,19.67
2022-12-09T15:55:15.388Z,20.15
2022-12-09T15:59:21.173Z,20.15
2022-12-09T16:03:27.154Z,20.52
2022-12-09T16:07:32.817Z,20.13
2022-12-09T16:11:36.857Z,19.90
2022-12-09T16:15:53.278Z,20.45
2022-12-09T16:19:56.193Z,21.58
2022-12-09T16:24:12.349Z,21.58
2022-12-09T16:28:21.521Z,22.70
2022-12-09T16:32:28.101Z,22.45
2022-12-09T16:36:32.859Z,22.65
2022-12-09T16:40:59.444Z,22.88
2022-12-09T16:45:21.287Z,23.25
2022-12-09T16:49:24.014Z,22.58
2022-12-09T16:53:30.781Z,25.40
2022-12-09T16:57:34.947Z,23.73
2022-12-09T17:01:41.899Z,23.73
2022-12-09T17:05:47.941Z,23.33
2022-12-09T17:13:54.888Z,23.95
2022-12-09T17:17:57.618Z,24.83
2022-12-09T17:22:00.352Z,24.13
2022-12-09T17:26:04.795Z,24.70
2022-12-09T17:30:10.548Z,24.25
2022-12-09T17:34:13.246Z,26.05
2022-12-09T17:38:16.006Z,25.05
2022-12-09T17:42:18.693Z,24.77
2022-12-09T17:46:22.846Z,25.50
2022-12-09T17:50:25.646Z,26.17
2022-12-09T17:54:28.328Z,26.40
2022-12-09T17:58:31.033Z,24.50
2022-12-09T18:02:35.187Z,24.30
2022-12-09T18:06:39.813Z,28.42
2022-12-09T18:10:44.114Z,26.33
2022-12-09T18:14:47.148Z,25.45
2022-12-09T18:18:51.597Z,26.02
2022-12-09T18:22:54.330Z,24.88
2022-12-09T18:26:57.463Z,25.92
2022-12-09T18:31:00.263Z,25.50
2022-12-09T18:35:04.548Z,28.17
2022-12-09T18:39:07.925Z,26.80
2022-12-09T18:43:10.722Z,24.95
2022-12-09T18:47:13.433Z,24.98
2022-12-09T18:51:18.909Z,24.77
2022-12-09T18:55:21.704Z,25.30
2022-12-09T18:59:25.517Z,26.90
2022-12-09T19:03:28.355Z,28.20
2022-12-09T19:07:32.652Z,25.90
2022-12-09T19:11:37.607Z,25.27
2022-12-09T19:15:40.561Z,24.30
2022-12-09T19:19:45.178Z,24.92
2022-12-09T19:23:49.455Z,27.08
2022-12-09T19:27:53.065Z,24.58
2022-12-09T19:31:57.757Z,32.00
2022-12-09T19:36:03.814Z,28.92
2022-12-09T19:40:09.918Z,28.88
2022-12-09T19:44:21.533Z,28.60
2022-12-09T19:48:36.140Z,27.70
2022-12-09T19:52:38.931Z,26.65
2022-12-09T19:56:43.506Z,26.02
2022-12-09T20:00:46.259Z,28.45
2022-12-09T20:04:50.376Z,28.05
2022-12-09T20:08:53.850Z,28.35
2022-12-09T20:12:57.931Z,29.13
2022-12-09T20:17:00.755Z,28.58
2022-12-09T20:21:05.218Z,28.02
2022-12-09T20:25:08.808Z,26.80
2022-12-09T20:29:13.011Z,26.77
2022-12-09T20:33:15.822Z,27.10
2022-12-09T20:37:18.646Z,27.55
2022-12-09T20:41:22.275Z,27.50
2022-12-09T20:45:26.417Z,27.52
2022-12-09T20:49:30.199Z,26.30
2022-12-09T20:53:33.222Z,27.95
2022-12-09T20:57:36.015Z,30.98
2022-12-09T21:01:40.719Z,31.77
2022-12-09T21:05:43.533Z,36.47
2022-12-09T21:09:46.616Z,29.25
2022-12-09T21:13:51.564Z,28.50
2022-12-09T21:17:55.967Z,26.98
2022-12-09T21:21:58.940Z,36.63
2022-12-09T21:26:04.498Z,34.70
2022-12-09T21:30:09.578Z,28.58
2022-12-09T21:34:13.965Z,28.43
2022-12-09T21:38:16.797Z,27.73
2022-12-09T21:42:19.516Z,27.17
2022-12-09T21:46:23.788Z,29.10
2022-12-09T21:50:27.984Z,26.45
2022-12-09T21:54:30.989Z,26.95
2022-12-09T21:58:34.458Z,27.42
2022-12-09T22:02:37.160Z,28.77
2022-12-09T22:06:41.558Z,26.92
2022-12-09T22:10:44.303Z,28.55
2022-12-09T22:14:47.065Z,25.73
2022-12-09T22:18:51.176Z,27.98
2022-12-09T22:22:55.306Z,27.48
2022-12-09T22:26:58.286Z,27.48
2022-12-09T22:31:01.879Z,28.33
2022-12-09T22:35:05.400Z,26.33
2022-12-09T22:39:12.493Z,25.40
2022-12-09T22:43:15.246Z,26.98
2022-12-09T22:47:18.018Z,25.27
2022-12-09T22:51:23.001Z,27.48
2022-12-09T22:55:27.130Z,26.50
2022-12-09T22:59:30.341Z,28.08
2022-12-09T23:03:33.077Z,27.05
2022-12-09T23:07:36.333Z,28.33
2022-12-09T23:11:41.332Z,28.92
2022-12-09T23:15:44.081Z,27.40
2022-12-09T23:19:47.472Z,24.70
2022-12-09T23:23:53.467Z,24.73
2022-12-09T23:27:57.551Z,25.95
2022-12-09T23:32:00.232Z,25.17
2022-12-09T23:36:06.533Z,27.17
2022-12-09T23:44:15.524Z,26.73
2022-12-09T23:48:18.249Z,27.80
2022-12-09T23:52:20.996Z,26.23
2022-12-09T23:56:25.520Z,26.77
